Karina — V2HS7 — position and weather

sailwx.info

Track history (hours):
 
Tides and Currents Weather Stations Pressure Air Temp Water Temp Dewpoint Dewpoint Depression Visibility Wind Speed Wind Dir Waves Ship Positions

Karina

Last reported at 2017-Sep-18 00:48 UTC. Time now 2017-Sep-19 20:42 UTC.
Position N 49°38' W 003°54'.

Length 103 m; draft 5.3 m.

Type: Cargo ship. MMSI: 304047000.

Date/timePositionNaut miles runAvg speedWind from/ knotsBaromVisibWave heightAir tempDewpointWater temp
2017-Sep-18 00:48N 49°38' W 003°54'311.1
2017-Sep-18 00:30N 49°39' W 003°50'611.5
2017-Sep-18 00:00N 49°42' W 003°42'612.0
2017-Sep-17 23:30N 49°46' W 003°34'612.2
2017-Sep-17 23:00N 49°49' W 003°26'612.4
2017-Sep-17 22:30N 49°52' W 003°18'612.3
2017-Sep-17 22:00N 49°55' W 003°09'612.0
2017-Sep-17 21:30N 49°58' W 003°02'611.5
2017-Sep-17 21:00N 50°00' W 002°53'40 9.1
2017-Sep-17 16:33N 50°11' W 001°53'1 8.5
2017-Sep-17 16:29N 50°11' W 001°52'6011.6
2017-Sep-17 11:20N 50°28' W 000°22'412.3
2017-Sep-17 11:00N 50°29' W 000°15'612.1
2017-Sep-17 10:30N 50°30' W 000°06'611.8
2017-Sep-17 10:00N 50°32' E 000°03'611.5
2017-Sep-17 09:31N 50°33' E 000°11'611.1
2017-Sep-17 09:00N 50°35' E 000°20'510.7
2017-Sep-17 08:30N 50°36' E 000°28'510.3
2017-Sep-17 08:00N 50°38' E 000°36'510.2
2017-Sep-17 07:30N 50°41' E 000°42'510.2
2017-Sep-17 07:00N 50°44' E 000°49'510.3
2017-Sep-17 06:29N 50°47' E 000°56'510.7
2017-Sep-17 06:00N 50°50' E 001°02'1011.4
2017-Sep-17 05:08N 50°57' E 001°14'212.2
2017-Sep-17 05:00N 50°58' E 001°16'612.8
2017-Sep-17 04:30N 51°02' E 001°23'713.1
2017-Sep-17 04:00N 51°06' E 001°32'713.0
2017-Sep-17 03:30N 51°10' E 001°39'612.3
2017-Sep-17 03:00N 51°15' E 001°46'611.7
2017-Sep-17 02:30N 51°20' E 001°50'510.9
2017-Sep-17 02:00N 51°25' E 001°54'510.4
2017-Sep-17 01:30N 51°29' E 001°59'510.0
2017-Sep-17 01:00N 51°33' E 002°05'5 9.8
2017-Sep-17 00:30N 51°37' E 002°10'5 9.4
2017-Sep-16 23:58N 51°40' E 002°15'14310.1
2017-Sep-16 09:46N 53°30' E 004°47'311.1
2017-Sep-16 09:30N 53°31' E 004°52'611.2
2017-Sep-16 08:59N 53°34' E 005°01'511.2
2017-Sep-16 08:30N 53°35' E 005°09'611.0
2017-Sep-16 08:00N 53°37' E 005°18'97 9.1
2017-Sep-15 21:20N 53°51' E 007°60'411.9
2017-Sep-15 21:00N 53°50' E 008°06'612.4
2017-Sep-15 20:30N 53°45' E 008°13'611.6
2017-Sep-15 20:00N 53°42' E 008°21'510.7
2017-Sep-15 19:30N 53°38' E 008°27'5 9.7
2017-Sep-15 19:00N 53°34' E 008°32'4 7.1
2017-Sep-15 18:30N 53°31' E 008°32'4 8.3
2017-Sep-15 18:00N 53°27' E 008°29'4 8.6
2017-Sep-15 17:30N 53°23' E 008°30'2 0.4
2017-Sep-15 11:25N 53°20' E 008°30'0 0.0
2017-Sep-15 10:59N 53°20' E 008°30'0 0.0
2017-Sep-15 10:27N 53°20' E 008°30'0 0.0
2017-Sep-15 09:58N 53°20' E 008°30'0 0.0
2017-Sep-15 09:29N 53°20' E 008°30'0 0.0
2017-Sep-15 08:55N 53°20' E 008°30'0 0.0
2017-Sep-15 08:28N 53°20' E 008°30'0 0.0
2017-Sep-15 08:00N 53°20' E 008°30'0 0.0
2017-Sep-15 06:49N 53°20' E 008°30'0 0.0
2017-Sep-15 06:22N 53°20' E 008°30'0 0.0
2017-Sep-15 05:56N 53°20' E 008°30'0 0.0
2017-Sep-15 05:29N 53°20' E 008°30'0 0.0
2017-Sep-15 04:59N 53°20' E 008°30'0 0.0
2017-Sep-15 04:29N 53°20' E 008°30'0 0.0
2017-Sep-15 03:52N 53°20' E 008°30'0 0.0
2017-Sep-15 03:28N 53°20' E 008°30'0 0.0
2017-Sep-15 02:56N 53°20' E 008°30'0 0.0
2017-Sep-15 02:28N 53°20' E 008°30'0 0.0
2017-Sep-14 23:57N 53°20' E 008°30'0 0.0
2017-Sep-14 23:28N 53°20' E 008°30'0 0.0
2017-Sep-14 22:49N 53°20' E 008°30'0 0.0
2017-Sep-14 22:28N 53°20' E 008°30'0 0.0
2017-Sep-14 21:55N 53°20' E 008°30'0 0.0
2017-Sep-14 21:17N 53°20' E 008°30'0 0.0
2017-Sep-14 20:56N 53°20' E 008°30'0 0.0
2017-Sep-14 20:29N 53°20' E 008°30'0 0.0
2017-Sep-14 19:59N 53°20' E 008°30'0 0.0
2017-Sep-14 19:29N 53°20' E 008°30'0 0.0
2017-Sep-14 11:31N 53°20' E 008°30'0 0.0
2017-Sep-14 10:45N 53°20' E 008°30'0 0.0
2017-Sep-14 10:28N 53°20' E 008°30'0 0.0
2017-Sep-14 09:58N 53°20' E 008°30'0 0.0
2017-Sep-14 09:28N 53°20' E 008°30'0 0.0
2017-Sep-14 08:57N 53°20' E 008°30'0 0.0
2017-Sep-14 08:25N 53°20' E 008°30'0 0.0
2017-Sep-14 07:43N 53°20' E 008°30'0 0.0
2017-Sep-14 07:20N 53°20' E 008°30'0 0.0
2017-Sep-14 06:50N 53°20' E 008°30'0 0.0
2017-Sep-13 23:50N 53°20' E 008°30'0 0.5
2017-Sep-13 23:29N 53°20' E 008°30'1 2.0
2017-Sep-13 22:57N 53°21' E 008°30'0 0.0
2017-Sep-13 22:20N 53°21' E 008°30'0 0.0
2017-Sep-13 21:51N 53°21' E 008°30'0 0.0
2017-Sep-13 21:29N 53°21' E 008°30'0 0.0
2017-Sep-13 20:46N 53°21' E 008°30'0 0.0
2017-Sep-13 20:28N 53°21' E 008°30'0 0.0
2017-Sep-13 19:58N 53°21' E 008°30'0 0.0
2017-Sep-13 19:25N 53°21' E 008°30'0 0.0
2017-Sep-13 18:51N 53°21' E 008°30'0 0.0
2017-Sep-13 18:30N 53°21' E 008°30'0 0.0
2017-Sep-13 17:58N 53°21' E 008°30'0 0.0
2017-Sep-13 17:28N 53°21' E 008°30'0 0.0
2017-Sep-13 16:59N 53°21' E 008°30'0 0.0
2017-Sep-13 16:30N 53°21' E 008°30'0 0.0
2017-Sep-13 15:56N 53°21' E 008°30'0 0.0
2017-Sep-13 15:26N 53°21' E 008°30'0 0.0
2017-Sep-13 14:55N 53°21' E 008°30'0 0.0
2017-Sep-13 14:28N 53°21' E 008°30'0 0.0
2017-Sep-13 13:55N 53°21' E 008°30'0 0.0
2017-Sep-13 12:55N 53°21' E 008°30'0 0.0
2017-Sep-13 12:19N 53°21' E 008°30'0 0.0
2017-Sep-13 11:56N 53°21' E 008°30'0 0.0
2017-Sep-13 11:30N 53°21' E 008°30'0 0.0
2017-Sep-13 10:53N 53°21' E 008°30'0 0.0
2017-Sep-13 10:30N 53°21' E 008°30'0 0.0
2017-Sep-13 10:00N 53°21' E 008°30'0 0.0
2017-Sep-13 09:25N 53°21' E 008°30'0 0.0
2017-Sep-13 08:57N 53°21' E 008°30'0 0.0
2017-Sep-13 08:30N 53°21' E 008°30'0 0.0
2017-Sep-13 08:00N 53°21' E 008°30'0 0.0
2017-Sep-13 07:28N 53°21' E 008°30'0 0.0
2017-Sep-13 06:59N 53°21' E 008°30'0 0.0
2017-Sep-13 06:29N 53°21' E 008°30'0 0.0
2017-Sep-13 05:56N 53°21' E 008°30'0 0.0
2017-Sep-13 05:28N 53°21' E 008°30'0 0.0
2017-Sep-13 05:00N 53°21' E 008°30'0 0.0
2017-Sep-13 04:29N 53°21' E 008°30'0 0.0
2017-Sep-13 03:58N 53°21' E 008°30'0 0.0
2017-Sep-13 03:28N 53°21' E 008°30'0 0.0
2017-Sep-13 02:59N 53°21' E 008°30'0 0.0
2017-Sep-13 02:30N 53°21' E 008°30'0 0.0
2017-Sep-13 01:58N 53°21' E 008°30'0 0.0
2017-Sep-13 01:25N 53°21' E 008°30'0 0.0
2017-Sep-13 01:00N 53°21' E 008°30'0 0.0
2017-Sep-13 00:27N 53°21' E 008°30'0 0.0
2017-Sep-12 23:59N 53°21' E 008°30'0 0.0
2017-Sep-12 23:31N 53°21' E 008°30'2 4.4
2017-Sep-12 23:00N 53°24' E 008°30'4 8.4
2017-Sep-12 22:31N 53°28' E 008°30'4 7.4
2017-Sep-12 22:00N 53°31' E 008°33'3 6.6
2017-Sep-12 21:30N 53°34' E 008°32'4 8.0
2017-Sep-12 21:00N 53°37' E 008°28'4 8.6
2017-Sep-12 20:30N 53°40' E 008°22'4 7.5
2017-Sep-12 20:00N 53°43' E 008°18'4 8.3
2017-Sep-12 19:30N 53°45' E 008°12'4 7.8
2017-Sep-12 19:00N 53°48' E 008°08'4 8.1
2017-Sep-12 18:30N 53°51' E 008°02'59 8.4
2017-Sep-12 11:34N 54°44' E 007°22'1 9.7
2017-Sep-12 11:28N 54°45' E 007°22'5 9.8
2017-Sep-12 11:00N 54°50' E 007°21'510.0
2017-Sep-12 10:30N 54°55' E 007°21'510.0
2017-Sep-12 10:00N 54°60' E 007°21'5 9.9
2017-Sep-12 09:30N 55°05' E 007°21'5 9.8
2017-Sep-12 09:00N 55°10' E 007°20'5 9.7
2017-Sep-12 08:31N 55°14' E 007°19'5 9.4
2017-Sep-12 08:01N 55°19' E 007°19'5 9.1
2017-Sep-12 07:30N 55°23' E 007°19'4 8.9
2017-Sep-12 07:00N 55°28' E 007°19'4 8.6
2017-Sep-12 06:31N 55°32' E 007°19'4 8.0
2017-Sep-12 06:00N 55°36' E 007°19'4 7.6
2017-Sep-12 05:30N 55°40' E 007°20'4 7.8
2017-Sep-12 05:00N 55°44' E 007°20'161 7.0
2017-Sep-11 05:51N 57°49' E 010°25'3 9.4
2017-Sep-11 05:30N 57°49' E 010°31'4 8.9
2017-Sep-11 05:00N 57°49' E 010°39'5 8.6
2017-Sep-11 04:27N 57°48' E 010°48'511.0
2017-Sep-11 04:00N 57°45' E 010°55'610.5
2017-Sep-11 03:28N 57°41' E 011°02'510.3
2017-Sep-11 03:00N 57°38' E 011°09'510.6
2017-Sep-11 02:30N 57°34' E 011°17'511.0
2017-Sep-11 02:00N 57°31' E 011°25'611.8
2017-Sep-11 01:30N 57°25' E 011°28'611.8
2017-Sep-11 01:00N 57°20' E 011°32'612.0
2017-Sep-11 00:29N 57°14' E 011°36'611.9
2017-Sep-11 00:00N 57°08' E 011°40'5911.0
2017-Sep-10 18:36N 56°13' E 012°18'111.5
2017-Sep-10 18:29N 56°12' E 012°20'511.5
2017-Sep-10 18:01N 56°09' E 012°28'713.2
2017-Sep-10 17:30N 56°05' E 012°37'612.2
2017-Sep-10 17:01N 55°59' E 012°42'611.7
2017-Sep-10 16:30N 55°53' E 012°44'611.9
2017-Sep-10 16:01N 55°48' E 012°43'611.7
2017-Sep-10 15:30N 55°42' E 012°41'611.8
2017-Sep-10 15:00N 55°36' E 012°42'1111.5
2017-Sep-10 14:01N 55°24' E 012°41'611.4
2017-Sep-10 13:30N 55°19' E 012°42'611.2
2017-Sep-10 13:00N 55°16' E 012°51'611.1
2017-Sep-10 12:30N 55°13' E 012°59'611.2
2017-Sep-10 12:00N 55°10' E 013°06'2011.3
2017-Sep-10 10:12N 54°58' E 013°35'511.4
2017-Sep-10 09:45N 54°54' E 013°42'411.5
2017-Sep-10 09:26N 54°52' E 013°47'511.4
2017-Sep-10 09:00N 54°49' E 013°54'611.4
2017-Sep-10 08:30N 54°46' E 014°01'14210.2
2017-Sep-09 18:35N 54°56' E 018°08'110.6
2017-Sep-09 18:29N 54°56' E 018°10'610.7
2017-Sep-09 17:54N 54°57' E 018°21'410.7
2017-Sep-09 17:30N 54°57' E 018°28'510.5
2017-Sep-09 17:01N 54°56' E 018°37'611.1
2017-Sep-09 16:31N 54°53' E 018°45'611.0
2017-Sep-09 16:01N 54°49' E 018°52'611.0
2017-Sep-09 15:30N 54°46' E 018°59'510.2
2017-Sep-09 15:00N 54°41' E 018°58'510.8
2017-Sep-09 14:31N 54°36' E 018°54'611.0
2017-Sep-09 14:00N 54°32' E 018°47'510.7
2017-Sep-09 13:30N 54°32' E 018°38'2 3.3
2017-Sep-09 13:00N 54°31' E 018°35'0 0.0
2017-Sep-09 12:29N 54°31' E 018°35'0 0.0
2017-Sep-09 11:53N 54°31' E 018°35'0 0.1
2017-Sep-09 11:29N 54°31' E 018°35'0 0.1
2017-Sep-09 11:00N 54°31' E 018°35'0 0.0
2017-Sep-09 10:30N 54°31' E 018°35'0 0.0
2017-Sep-09 09:59N 54°31' E 018°35'0 0.0
2017-Sep-09 09:29N 54°31' E 018°35'0 0.0
2017-Sep-09 08:58N 54°31' E 018°35'0 0.0
2017-Sep-09 08:26N 54°31' E 018°35'0 0.0
2017-Sep-09 07:58N 54°31' E 018°35'0 0.0
2017-Sep-09 07:30N 54°31' E 018°35'0 0.0
2017-Sep-09 07:00N 54°31' E 018°35'0 0.0
2017-Sep-09 06:29N 54°31' E 018°35'0 0.0
2017-Sep-09 05:55N 54°31' E 018°35'0 0.0
2017-Sep-09 05:29N 54°31' E 018°35'0 0.0
2017-Sep-09 04:58N 54°31' E 018°35'0 0.0
2017-Sep-09 04:28N 54°31' E 018°35'0 0.0
2017-Sep-09 03:58N 54°31' E 018°35'0 0.0
2017-Sep-09 03:28N 54°31' E 018°35'0 0.0
2017-Sep-09 02:58N 54°31' E 018°35'0 0.0
2017-Sep-09 02:29N 54°31' E 018°35'0 0.0
2017-Sep-09 01:59N 54°31' E 018°35'0 0.0
2017-Sep-09 01:29N 54°31' E 018°35'0 0.0
2017-Sep-09 00:59N 54°31' E 018°35'0 0.0
2017-Sep-09 00:29N 54°31' E 018°35'0 0.0
2017-Sep-09 00:00N 54°31' E 018°35'0 0.0
2017-Sep-08 23:30N 54°31' E 018°35'0 0.0
2017-Sep-08 22:58N 54°31' E 018°35'0 0.0
2017-Sep-08 22:30N 54°31' E 018°35'0 0.0
2017-Sep-08 22:00N 54°31' E 018°35'0 0.0
2017-Sep-08 21:30N 54°31' E 018°35'0 0.0
2017-Sep-08 20:58N 54°31' E 018°35'0 0.0
2017-Sep-08 20:29N 54°31' E 018°35'0 0.0
2017-Sep-08 20:00N 54°31' E 018°35'0 0.1
2017-Sep-08 19:30N 54°31' E 018°35'0 0.0
2017-Sep-08 18:58N 54°31' E 018°35'0 0.9
2017-Sep-08 18:31N 54°31' E 018°35'1 1.8
2017-Sep-08 17:58N 54°31' E 018°33'0 0.0
2017-Sep-08 17:28N 54°31' E 018°33'0 0.0
2017-Sep-08 16:58N 54°31' E 018°33'0 0.0
2017-Sep-08 16:30N 54°31' E 018°33'0 0.0
2017-Sep-08 16:00N 54°31' E 018°33'0 0.0
2017-Sep-08 15:28N 54°31' E 018°33'0 0.0
2017-Sep-08 14:59N 54°31' E 018°33'0 0.0
2017-Sep-08 14:30N 54°31' E 018°33'0 0.0
2017-Sep-08 14:00N 54°31' E 018°33'0 0.0
2017-Sep-08 13:29N 54°31' E 018°33'0 0.0
2017-Sep-08 12:58N 54°31' E 018°33'0 0.0
2017-Sep-08 12:28N 54°31' E 018°33'0 0.0
2017-Sep-08 11:58N 54°31' E 018°33'0 0.0
2017-Sep-08 11:30N 54°31' E 018°33'0 0.0
2017-Sep-08 10:59N 54°31' E 018°33'0 0.0
2017-Sep-08 10:29N 54°31' E 018°33'0 0.0
2017-Sep-08 09:59N 54°31' E 018°33'0 0.0
2017-Sep-08 09:30N 54°31' E 018°33'0 0.0
2017-Sep-08 09:00N 54°31' E 018°33'0 0.0
2017-Sep-08 08:28N 54°31' E 018°33'0 0.0
2017-Sep-08 07:58N 54°31' E 018°33'0 0.0
2017-Sep-08 07:29N 54°31' E 018°33'0 0.0
2017-Sep-08 06:59N 54°31' E 018°33'0 0.0
2017-Sep-08 06:25N 54°31' E 018°33'0 0.0
2017-Sep-08 05:58N 54°31' E 018°33'0 0.0
2017-Sep-08 05:29N 54°31' E 018°33'0 0.0
2017-Sep-08 04:57N 54°31' E 018°33'0 0.0
2017-Sep-08 04:30N 54°31' E 018°33'0 0.0
2017-Sep-08 04:00N 54°31' E 018°33'0 0.0
2017-Sep-08 03:29N 54°31' E 018°33'0 0.0
2017-Sep-08 02:59N 54°31' E 018°33'0 0.0
2017-Sep-08 02:29N 54°31' E 018°33'0 0.0
2017-Sep-08 01:58N 54°31' E 018°33'0 0.0
2017-Sep-08 01:29N 54°31' E 018°33'0 0.0
2017-Sep-08 01:00N 54°31' E 018°33'  
Track history (hours):
 
Tides and Currents Weather Stations Pressure Air Temp Water Temp Dewpoint Dewpoint Depression Visibility Wind Speed Wind Dir Waves Ship Positions

Karina

Last reported at 2017-Sep-18 00:48 UTC. Time now 2017-Sep-19 20:42 UTC.
Position N 49°38' W 003°54'.

Length 103 m; draft 5.3 m.

Type: Cargo ship. MMSI: 304047000.

Date/timePositionNaut miles runAvg speedWind from/ knotsBaromVisibWave heightAir tempDewpointWater temp
2017-Sep-18 00:48N 49°38' W 003°54'311.1
2017-Sep-18 00:30N 49°39' W 003°50'611.5
2017-Sep-18 00:00N 49°42' W 003°42'612.0
2017-Sep-17 23:30N 49°46' W 003°34'612.2
2017-Sep-17 23:00N 49°49' W 003°26'612.4
2017-Sep-17 22:30N 49°52' W 003°18'612.3
2017-Sep-17 22:00N 49°55' W 003°09'612.0
2017-Sep-17 21:30N 49°58' W 003°02'611.5
2017-Sep-17 21:00N 50°00' W 002°53'40 9.1
2017-Sep-17 16:33N 50°11' W 001°53'1 8.5
2017-Sep-17 16:29N 50°11' W 001°52'6011.6
2017-Sep-17 11:20N 50°28' W 000°22'412.3
2017-Sep-17 11:00N 50°29' W 000°15'612.1
2017-Sep-17 10:30N 50°30' W 000°06'611.8
2017-Sep-17 10:00N 50°32' E 000°03'611.5
2017-Sep-17 09:31N 50°33' E 000°11'611.1
2017-Sep-17 09:00N 50°35' E 000°20'510.7
2017-Sep-17 08:30N 50°36' E 000°28'510.3
2017-Sep-17 08:00N 50°38' E 000°36'510.2
2017-Sep-17 07:30N 50°41' E 000°42'510.2
2017-Sep-17 07:00N 50°44' E 000°49'510.3
2017-Sep-17 06:29N 50°47' E 000°56'510.7
2017-Sep-17 06:00N 50°50' E 001°02'1011.4
2017-Sep-17 05:08N 50°57' E 001°14'212.2
2017-Sep-17 05:00N 50°58' E 001°16'612.8
2017-Sep-17 04:30N 51°02' E 001°23'713.1
2017-Sep-17 04:00N 51°06' E 001°32'713.0
2017-Sep-17 03:30N 51°10' E 001°39'612.3
2017-Sep-17 03:00N 51°15' E 001°46'611.7
2017-Sep-17 02:30N 51°20' E 001°50'510.9
2017-Sep-17 02:00N 51°25' E 001°54'510.4
2017-Sep-17 01:30N 51°29' E 001°59'510.0
2017-Sep-17 01:00N 51°33' E 002°05'5 9.8
2017-Sep-17 00:30N 51°37' E 002°10'5 9.4
2017-Sep-16 23:58N 51°40' E 002°15'14310.1
2017-Sep-16 09:46N 53°30' E 004°47'311.1
2017-Sep-16 09:30N 53°31' E 004°52'611.2
2017-Sep-16 08:59N 53°34' E 005°01'511.2
2017-Sep-16 08:30N 53°35' E 005°09'611.0
2017-Sep-16 08:00N 53°37' E 005°18'97 9.1
2017-Sep-15 21:20N 53°51' E 007°60'411.9
2017-Sep-15 21:00N 53°50' E 008°06'612.4
2017-Sep-15 20:30N 53°45' E 008°13'611.6
2017-Sep-15 20:00N 53°42' E 008°21'510.7
2017-Sep-15 19:30N 53°38' E 008°27'5 9.7
2017-Sep-15 19:00N 53°34' E 008°32'4 7.1
2017-Sep-15 18:30N 53°31' E 008°32'4 8.3
2017-Sep-15 18:00N 53°27' E 008°29'4 8.6
2017-Sep-15 17:30N 53°23' E 008°30'2 0.4
2017-Sep-15 11:25N 53°20' E 008°30'0 0.0
2017-Sep-15 10:59N 53°20' E 008°30'0 0.0
2017-Sep-15 10:27N 53°20' E 008°30'0 0.0
2017-Sep-15 09:58N 53°20' E 008°30'0 0.0
2017-Sep-15 09:29N 53°20' E 008°30'0 0.0
2017-Sep-15 08:55N 53°20' E 008°30'0 0.0
2017-Sep-15 08:28N 53°20' E 008°30'0 0.0
2017-Sep-15 08:00N 53°20' E 008°30'0 0.0
2017-Sep-15 06:49N 53°20' E 008°30'0 0.0
2017-Sep-15 06:22N 53°20' E 008°30'0 0.0
2017-Sep-15 05:56N 53°20' E 008°30'0 0.0
2017-Sep-15 05:29N 53°20' E 008°30'0 0.0
2017-Sep-15 04:59N 53°20' E 008°30'0 0.0
2017-Sep-15 04:29N 53°20' E 008°30'0 0.0
2017-Sep-15 03:52N 53°20' E 008°30'0 0.0
2017-Sep-15 03:28N 53°20' E 008°30'0 0.0
2017-Sep-15 02:56N 53°20' E 008°30'0 0.0
2017-Sep-15 02:28N 53°20' E 008°30'0 0.0
2017-Sep-14 23:57N 53°20' E 008°30'0 0.0
2017-Sep-14 23:28N 53°20' E 008°30'0 0.0
2017-Sep-14 22:49N 53°20' E 008°30'0 0.0
2017-Sep-14 22:28N 53°20' E 008°30'0 0.0
2017-Sep-14 21:55N 53°20' E 008°30'0 0.0
2017-Sep-14 21:17N 53°20' E 008°30'0 0.0
2017-Sep-14 20:56N 53°20' E 008°30'0 0.0
2017-Sep-14 20:29N 53°20' E 008°30'0 0.0
2017-Sep-14 19:59N 53°20' E 008°30'0 0.0
2017-Sep-14 19:29N 53°20' E 008°30'0 0.0
2017-Sep-14 11:31N 53°20' E 008°30'0 0.0
2017-Sep-14 10:45N 53°20' E 008°30'0 0.0
2017-Sep-14 10:28N 53°20' E 008°30'0 0.0
2017-Sep-14 09:58N 53°20' E 008°30'0 0.0
2017-Sep-14 09:28N 53°20' E 008°30'0 0.0
2017-Sep-14 08:57N 53°20' E 008°30'0 0.0
2017-Sep-14 08:25N 53°20' E 008°30'0 0.0
2017-Sep-14 07:43N 53°20' E 008°30'0 0.0
2017-Sep-14 07:20N 53°20' E 008°30'0 0.0
2017-Sep-14 06:50N 53°20' E 008°30'0 0.0
2017-Sep-13 23:50N 53°20' E 008°30'0 0.5
2017-Sep-13 23:29N 53°20' E 008°30'1 2.0
2017-Sep-13 22:57N 53°21' E 008°30'0 0.0
2017-Sep-13 22:20N 53°21' E 008°30'0 0.0
2017-Sep-13 21:51N 53°21' E 008°30'0 0.0
2017-Sep-13 21:29N 53°21' E 008°30'0 0.0
2017-Sep-13 20:46N 53°21' E 008°30'0 0.0
2017-Sep-13 20:28N 53°21' E 008°30'0 0.0
2017-Sep-13 19:58N 53°21' E 008°30'0 0.0
2017-Sep-13 19:25N 53°21' E 008°30'0 0.0
2017-Sep-13 18:51N 53°21' E 008°30'0 0.0
2017-Sep-13 18:30N 53°21' E 008°30'0 0.0
2017-Sep-13 17:58N 53°21' E 008°30'0 0.0
2017-Sep-13 17:28N 53°21' E 008°30'0 0.0
2017-Sep-13 16:59N 53°21' E 008°30'0 0.0
2017-Sep-13 16:30N 53°21' E 008°30'0 0.0
2017-Sep-13 15:56N 53°21' E 008°30'0 0.0
2017-Sep-13 15:26N 53°21' E 008°30'0 0.0
2017-Sep-13 14:55N 53°21' E 008°30'0 0.0
2017-Sep-13 14:28N 53°21' E 008°30'0 0.0
2017-Sep-13 13:55N 53°21' E 008°30'0 0.0
2017-Sep-13 12:55N 53°21' E 008°30'0 0.0
2017-Sep-13 12:19N 53°21' E 008°30'0 0.0
2017-Sep-13 11:56N 53°21' E 008°30'0 0.0
2017-Sep-13 11:30N 53°21' E 008°30'0 0.0
2017-Sep-13 10:53N 53°21' E 008°30'0 0.0
2017-Sep-13 10:30N 53°21' E 008°30'0 0.0
2017-Sep-13 10:00N 53°21' E 008°30'0 0.0
2017-Sep-13 09:25N 53°21' E 008°30'0 0.0
2017-Sep-13 08:57N 53°21' E 008°30'0 0.0
2017-Sep-13 08:30N 53°21' E 008°30'0 0.0
2017-Sep-13 08:00N 53°21' E 008°30'0 0.0
2017-Sep-13 07:28N 53°21' E 008°30'0 0.0
2017-Sep-13 06:59N 53°21' E 008°30'0 0.0
2017-Sep-13 06:29N 53°21' E 008°30'0 0.0
2017-Sep-13 05:56N 53°21' E 008°30'0 0.0
2017-Sep-13 05:28N 53°21' E 008°30'0 0.0
2017-Sep-13 05:00N 53°21' E 008°30'0 0.0
2017-Sep-13 04:29N 53°21' E 008°30'0 0.0
2017-Sep-13 03:58N 53°21' E 008°30'0 0.0
2017-Sep-13 03:28N 53°21' E 008°30'0 0.0
2017-Sep-13 02:59N 53°21' E 008°30'0 0.0
2017-Sep-13 02:30N 53°21' E 008°30'0 0.0
2017-Sep-13 01:58N 53°21' E 008°30'0 0.0
2017-Sep-13 01:25N 53°21' E 008°30'0 0.0
2017-Sep-13 01:00N 53°21' E 008°30'0 0.0
2017-Sep-13 00:27N 53°21' E 008°30'0 0.0
2017-Sep-12 23:59N 53°21' E 008°30'0 0.0
2017-Sep-12 23:31N 53°21' E 008°30'2 4.4
2017-Sep-12 23:00N 53°24' E 008°30'4 8.4
2017-Sep-12 22:31N 53°28' E 008°30'4 7.4
2017-Sep-12 22:00N 53°31' E 008°33'3 6.6
2017-Sep-12 21:30N 53°34' E 008°32'4 8.0
2017-Sep-12 21:00N 53°37' E 008°28'4 8.6
2017-Sep-12 20:30N 53°40' E 008°22'4 7.5
2017-Sep-12 20:00N 53°43' E 008°18'4 8.3
2017-Sep-12 19:30N 53°45' E 008°12'4 7.8
2017-Sep-12 19:00N 53°48' E 008°08'4 8.1
2017-Sep-12 18:30N 53°51' E 008°02'59 8.4
2017-Sep-12 11:34N 54°44' E 007°22'1 9.7
2017-Sep-12 11:28N 54°45' E 007°22'5 9.8
2017-Sep-12 11:00N 54°50' E 007°21'510.0
2017-Sep-12 10:30N 54°55' E 007°21'510.0
2017-Sep-12 10:00N 54°60' E 007°21'5 9.9
2017-Sep-12 09:30N 55°05' E 007°21'5 9.8
2017-Sep-12 09:00N 55°10' E 007°20'5 9.7
2017-Sep-12 08:31N 55°14' E 007°19'5 9.4
2017-Sep-12 08:01N 55°19' E 007°19'5 9.1
2017-Sep-12 07:30N 55°23' E 007°19'4 8.9
2017-Sep-12 07:00N 55°28' E 007°19'4 8.6
2017-Sep-12 06:31N 55°32' E 007°19'4 8.0
2017-Sep-12 06:00N 55°36' E 007°19'4 7.6
2017-Sep-12 05:30N 55°40' E 007°20'4 7.8
2017-Sep-12 05:00N 55°44' E 007°20'161 7.0
2017-Sep-11 05:51N 57°49' E 010°25'3 9.4
2017-Sep-11 05:30N 57°49' E 010°31'4 8.9
2017-Sep-11 05:00N 57°49' E 010°39'5 8.6
2017-Sep-11 04:27N 57°48' E 010°48'511.0
2017-Sep-11 04:00N 57°45' E 010°55'610.5
2017-Sep-11 03:28N 57°41' E 011°02'510.3
2017-Sep-11 03:00N 57°38' E 011°09'510.6
2017-Sep-11 02:30N 57°34' E 011°17'511.0
2017-Sep-11 02:00N 57°31' E 011°25'611.8
2017-Sep-11 01:30N 57°25' E 011°28'611.8
2017-Sep-11 01:00N 57°20' E 011°32'612.0
2017-Sep-11 00:29N 57°14' E 011°36'611.9
2017-Sep-11 00:00N 57°08' E 011°40'5911.0
2017-Sep-10 18:36N 56°13' E 012°18'111.5
2017-Sep-10 18:29N 56°12' E 012°20'511.5
2017-Sep-10 18:01N 56°09' E 012°28'713.2
2017-Sep-10 17:30N 56°05' E 012°37'612.2
2017-Sep-10 17:01N 55°59' E 012°42'611.7
2017-Sep-10 16:30N 55°53' E 012°44'611.9
2017-Sep-10 16:01N 55°48' E 012°43'611.7
2017-Sep-10 15:30N 55°42' E 012°41'611.8
2017-Sep-10 15:00N 55°36' E 012°42'1111.5
2017-Sep-10 14:01N 55°24' E 012°41'611.4
2017-Sep-10 13:30N 55°19' E 012°42'611.2
2017-Sep-10 13:00N 55°16' E 012°51'611.1
2017-Sep-10 12:30N 55°13' E 012°59'611.2
2017-Sep-10 12:00N 55°10' E 013°06'2011.3
2017-Sep-10 10:12N 54°58' E 013°35'511.4
2017-Sep-10 09:45N 54°54' E 013°42'411.5
2017-Sep-10 09:26N 54°52' E 013°47'511.4
2017-Sep-10 09:00N 54°49' E 013°54'611.4
2017-Sep-10 08:30N 54°46' E 014°01'14210.2
2017-Sep-09 18:35N 54°56' E 018°08'110.6
2017-Sep-09 18:29N 54°56' E 018°10'610.7
2017-Sep-09 17:54N 54°57' E 018°21'410.7
2017-Sep-09 17:30N 54°57' E 018°28'510.5
2017-Sep-09 17:01N 54°56' E 018°37'611.1
2017-Sep-09 16:31N 54°53' E 018°45'611.0
2017-Sep-09 16:01N 54°49' E 018°52'611.0
2017-Sep-09 15:30N 54°46' E 018°59'510.2
2017-Sep-09 15:00N 54°41' E 018°58'510.8
2017-Sep-09 14:31N 54°36' E 018°54'611.0
2017-Sep-09 14:00N 54°32' E 018°47'510.7
2017-Sep-09 13:30N 54°32' E 018°38'2 3.3
2017-Sep-09 13:00N 54°31' E 018°35'0 0.0
2017-Sep-09 12:29N 54°31' E 018°35'0 0.0
2017-Sep-09 11:53N 54°31' E 018°35'0 0.1
2017-Sep-09 11:29N 54°31' E 018°35'0 0.1
2017-Sep-09 11:00N 54°31' E 018°35'0 0.0
2017-Sep-09 10:30N 54°31' E 018°35'0 0.0
2017-Sep-09 09:59N 54°31' E 018°35'0 0.0
2017-Sep-09 09:29N 54°31' E 018°35'0 0.0
2017-Sep-09 08:58N 54°31' E 018°35'0 0.0
2017-Sep-09 08:26N 54°31' E 018°35'0 0.0
2017-Sep-09 07:58N 54°31' E 018°35'0 0.0
2017-Sep-09 07:30N 54°31' E 018°35'0 0.0
2017-Sep-09 07:00N 54°31' E 018°35'0 0.0
2017-Sep-09 06:29N 54°31' E 018°35'0 0.0
2017-Sep-09 05:55N 54°31' E 018°35'0 0.0
2017-Sep-09 05:29N 54°31' E 018°35'0 0.0
2017-Sep-09 04:58N 54°31' E 018°35'0 0.0
2017-Sep-09 04:28N 54°31' E 018°35'0 0.0
2017-Sep-09 03:58N 54°31' E 018°35'0 0.0
2017-Sep-09 03:28N 54°31' E 018°35'0 0.0
2017-Sep-09 02:58N 54°31' E 018°35'0 0.0
2017-Sep-09 02:29N 54°31' E 018°35'0 0.0
2017-Sep-09 01:59N 54°31' E 018°35'0 0.0
2017-Sep-09 01:29N 54°31' E 018°35'0 0.0
2017-Sep-09 00:59N 54°31' E 018°35'0 0.0
2017-Sep-09 00:29N 54°31' E 018°35'0 0.0
2017-Sep-09 00:00N 54°31' E 018°35'0 0.0
2017-Sep-08 23:30N 54°31' E 018°35'0 0.0
2017-Sep-08 22:58N 54°31' E 018°35'0 0.0
2017-Sep-08 22:30N 54°31' E 018°35'0 0.0
2017-Sep-08 22:00N 54°31' E 018°35'0 0.0
2017-Sep-08 21:30N 54°31' E 018°35'0 0.0
2017-Sep-08 20:58N 54°31' E 018°35'0 0.0
2017-Sep-08 20:29N 54°31' E 018°35'0 0.0
2017-Sep-08 20:00N 54°31' E 018°35'0 0.1
2017-Sep-08 19:30N 54°31' E 018°35'0 0.0
2017-Sep-08 18:58N 54°31' E 018°35'0 0.9
2017-Sep-08 18:31N 54°31' E 018°35'1 1.8
2017-Sep-08 17:58N 54°31' E 018°33'0 0.0
2017-Sep-08 17:28N 54°31' E 018°33'0 0.0
2017-Sep-08 16:58N 54°31' E 018°33'0 0.0
2017-Sep-08 16:30N 54°31' E 018°33'0 0.0
2017-Sep-08 16:00N 54°31' E 018°33'0 0.0
2017-Sep-08 15:28N 54°31' E 018°33'0 0.0
2017-Sep-08 14:59N 54°31' E 018°33'0 0.0
2017-Sep-08 14:30N 54°31' E 018°33'0 0.0
2017-Sep-08 14:00N 54°31' E 018°33'0 0.0
2017-Sep-08 13:29N 54°31' E 018°33'0 0.0
2017-Sep-08 12:58N 54°31' E 018°33'0 0.0
2017-Sep-08 12:28N 54°31' E 018°33'0 0.0
2017-Sep-08 11:58N 54°31' E 018°33'0 0.0
2017-Sep-08 11:30N 54°31' E 018°33'0 0.0
2017-Sep-08 10:59N 54°31' E 018°33'0 0.0
2017-Sep-08 10:29N 54°31' E 018°33'0 0.0
2017-Sep-08 09:59N 54°31' E 018°33'0 0.0
2017-Sep-08 09:30N 54°31' E 018°33'0 0.0
2017-Sep-08 09:00N 54°31' E 018°33'0 0.0
2017-Sep-08 08:28N 54°31' E 018°33'0 0.0
2017-Sep-08 07:58N 54°31' E 018°33'0 0.0
2017-Sep-08 07:29N 54°31' E 018°33'0 0.0
2017-Sep-08 06:59N 54°31' E 018°33'0 0.0
2017-Sep-08 06:25N 54°31' E 018°33'0 0.0
2017-Sep-08 05:58N 54°31' E 018°33'0 0.0
2017-Sep-08 05:29N 54°31' E 018°33'0 0.0
2017-Sep-08 04:57N 54°31' E 018°33'0 0.0
2017-Sep-08 04:30N 54°31' E 018°33'0 0.0
2017-Sep-08 04:00N 54°31' E 018°33'0 0.0
2017-Sep-08 03:29N 54°31' E 018°33'0 0.0
2017-Sep-08 02:59N 54°31' E 018°33'0 0.0
2017-Sep-08 02:29N 54°31' E 018°33'0 0.0
2017-Sep-08 01:58N 54°31' E 018°33'0 0.0
2017-Sep-08 01:29N 54°31' E 018°33'0 0.0
2017-Sep-08 01:00N 54°31' E 018°33'  

Dump ship's entire track history